BRU weather

Brussels Airport
Brussels, Brussels-Capital Region, Belgium

Public forecast

Using degrees Celsius for public forecast. Weather courtesy of forecast.io.

METAR (pilot weather report)

Retrieved 2018/10/19 08:20 UTC (8 minutes ago):

EBBR 190820Z 05004KT 6000 FEW009 11/08 Q1025 NOSIG

TAF (pilot weather forecast)

Retrieved 2018/10/19 06:27 UTC (2 hours ago):

TAF TAF EBBR 190508Z 1906/2012 03005KT 9999 SCT040 TEMPO 1906/1909 BKN012 TEMPO 2003/2007 2500 BR